sensor_id;sensor_type;location;lat;lon;timestamp;P1;durP1;ratioP1;P2;durP2;ratioP2
58137;SDS011;43955;47.362;18.930;2023-06-10T00:00:03;14.45;;;6.75;;
58137;SDS011;43955;47.362;18.930;2023-06-10T00:02:38;9.77;;;6.15;;
58137;SDS011;43955;47.362;18.930;2023-06-10T00:05:06;10.60;;;5.93;;
58137;SDS011;43955;47.362;18.930;2023-06-10T00:07:37;12.18;;;6.57;;
58137;SDS011;43955;47.362;18.930;2023-06-10T00:10:05;14.65;;;6.70;;
58137;SDS011;43955;47.362;18.930;2023-06-10T00:12:33;12.93;;;6.62;;
58137;SDS011;43955;47.362;18.930;2023-06-10T00:15:04;9.95;;;6.37;;
58137;SDS011;43955;47.362;18.930;2023-06-10T00:17:33;9.32;;;5.50;;
58137;SDS011;43955;47.362;18.930;2023-06-10T00:20:00;10.98;;;5.87;;
58137;SDS011;43955;47.362;18.930;2023-06-10T00:22:31;10.63;;;6.68;;
58137;SDS011;43955;47.362;18.930;2023-06-10T00:24:59;10.40;;;6.53;;
58137;SDS011;43955;47.362;18.930;2023-06-10T00:27:26;13.00;;;6.37;;
58137;SDS011;43955;47.362;18.930;2023-06-10T00:29:59;12.35;;;7.00;;
58137;SDS011;43955;47.362;18.930;2023-06-10T00:32:26;13.02;;;7.05;;
58137;SDS011;43955;47.362;18.930;2023-06-10T00:34:54;11.85;;;7.00;;
58137;SDS011;43955;47.362;18.930;2023-06-10T00:37:22;12.95;;;7.68;;
58137;SDS011;43955;47.362;18.930;2023-06-10T00:39:49;12.95;;;7.07;;
58137;SDS011;43955;47.362;18.930;2023-06-10T00:42:17;14.13;;;7.62;;
58137;SDS011;43955;47.362;18.930;2023-06-10T00:44:44;11.73;;;7.18;;
58137;SDS011;43955;47.362;18.930;2023-06-10T00:47:12;11.05;;;6.62;;
58137;SDS011;43955;47.362;18.930;2023-06-10T00:49:39;10.93;;;6.75;;
58137;SDS011;43955;47.362;18.930;2023-06-10T00:52:06;13.13;;;6.62;;
58137;SDS011;43955;47.362;18.930;2023-06-10T00:54:36;12.35;;;6.65;;
58137;SDS011;43955;47.362;18.930;2023-06-10T00:57:04;14.30;;;7.55;;
58137;SDS011;43955;47.362;18.930;2023-06-10T00:59:34;12.85;;;8.23;;
58137;SDS011;43955;47.362;18.930;2023-06-10T01:02:03;13.32;;;7.70;;
58137;SDS011;43955;47.362;18.930;2023-06-10T01:04:30;12.57;;;7.25;;
58137;SDS011;43955;47.362;18.930;2023-06-10T01:10:18;14.93;;;6.87;;
58137;SDS011;43955;47.362;18.930;2023-06-10T01:12:58;13.43;;;7.22;;
58137;SDS011;43955;47.362;18.930;2023-06-10T01:15:30;11.75;;;6.68;;
58137;SDS011;43955;47.362;18.930;2023-06-10T01:17:58;12.75;;;6.60;;
58137;SDS011;43955;47.362;18.930;2023-06-10T01:20:32;10.15;;;6.62;;
58137;SDS011;43955;47.362;18.930;2023-06-10T01:23:00;13.65;;;6.47;;
58137;SDS011;43955;47.362;18.930;2023-06-10T01:25:27;13.40;;;6.87;;
58137;SDS011;43955;47.362;18.930;2023-06-10T01:28:02;15.98;;;7.53;;
58137;SDS011;43955;47.362;18.930;2023-06-10T01:33:36;10.18;;;7.10;;
58137;SDS011;43955;47.362;18.930;2023-06-10T01:36:04;10.00;;;6.45;;
58137;SDS011;43955;47.362;18.930;2023-06-10T01:38:36;11.30;;;6.57;;
58137;SDS011;43955;47.362;18.930;2023-06-10T01:41:08;12.20;;;6.03;;
58137;SDS011;43955;47.362;18.930;2023-06-10T01:43:37;11.63;;;6.80;;
58137;SDS011;43955;47.362;18.930;2023-06-10T01:46:06;12.88;;;6.62;;
58137;SDS011;43955;47.362;18.930;2023-06-10T01:48:34;9.77;;;6.05;;
58137;SDS011;43955;47.362;18.930;2023-06-10T01:51:01;11.93;;;6.55;;
58137;SDS011;43955;47.362;18.930;2023-06-10T01:53:29;14.60;;;6.78;;
58137;SDS011;43955;47.362;18.930;2023-06-10T01:55:56;11.88;;;6.78;;
58137;SDS011;43955;47.362;18.930;2023-06-10T01:58:23;12.48;;;6.47;;
58137;SDS011;43955;47.362;18.930;2023-06-10T02:00:51;12.15;;;7.47;;
58137;SDS011;43955;47.362;18.930;2023-06-10T02:03:19;11.27;;;6.82;;
58137;SDS011;43955;47.362;18.930;2023-06-10T02:05:46;10.52;;;6.00;;
58137;SDS011;43955;47.362;18.930;2023-06-10T02:08:15;11.25;;;6.50;;
58137;SDS011;43955;47.362;18.930;2023-06-10T02:10:43;11.93;;;6.78;;
58137;SDS011;43955;47.362;18.930;2023-06-10T02:13:10;12.80;;;6.72;;
58137;SDS011;43955;47.362;18.930;2023-06-10T02:15:37;9.95;;;6.53;;
58137;SDS011;43955;47.362;18.930;2023-06-10T02:18:05;14.23;;;7.60;;
58137;SDS011;43955;47.362;18.930;2023-06-10T02:20:32;10.85;;;6.07;;
58137;SDS011;43955;47.362;18.930;2023-06-10T02:23:00;10.85;;;6.65;;
58137;SDS011;43955;47.362;18.930;2023-06-10T02:25:28;12.82;;;6.97;;
58137;SDS011;43955;47.362;18.930;2023-06-10T02:27:56;10.70;;;6.65;;
58137;SDS011;43955;47.362;18.930;2023-06-10T02:30:24;11.63;;;6.50;;
58137;SDS011;43955;47.362;18.930;2023-06-10T02:32:52;10.00;;;6.40;;
58137;SDS011;43955;47.362;18.930;2023-06-10T02:35:19;10.65;;;6.40;;
58137;SDS011;43955;47.362;18.930;2023-06-10T02:37:47;11.95;;;7.07;;
58137;SDS011;43955;47.362;18.930;2023-06-10T02:40:14;12.27;;;6.43;;
58137;SDS011;43955;47.362;18.930;2023-06-10T02:42:42;11.82;;;7.43;;
58137;SDS011;43955;47.362;18.930;2023-06-10T02:45:09;13.32;;;6.95;;
58137;SDS011;43955;47.362;18.930;2023-06-10T02:47:38;12.90;;;7.47;;
58137;SDS011;43955;47.362;18.930;2023-06-10T02:50:07;13.02;;;7.55;;
58137;SDS011;43955;47.362;18.930;2023-06-10T02:52:35;13.07;;;6.90;;
58137;SDS011;43955;47.362;18.930;2023-06-10T02:55:03;12.63;;;7.30;;
58137;SDS011;43955;47.362;18.930;2023-06-10T02:57:31;17.02;;;7.15;;
58137;SDS011;43955;47.362;18.930;2023-06-10T02:59:59;16.30;;;6.82;;
58137;SDS011;43955;47.362;18.930;2023-06-10T03:02:29;12.07;;;6.90;;
58137;SDS011;43955;47.362;18.930;2023-06-10T03:04:58;12.55;;;7.87;;
58137;SDS011;43955;47.362;18.930;2023-06-10T03:07:26;16.05;;;8.27;;
58137;SDS011;43955;47.362;18.930;2023-06-10T03:09:53;11.38;;;7.50;;
58137;SDS011;43955;47.362;18.930;2023-06-10T03:12:21;11.20;;;6.90;;
58137;SDS011;43955;47.362;18.930;2023-06-10T03:14:48;11.15;;;7.45;;
58137;SDS011;43955;47.362;18.930;2023-06-10T03:17:16;14.82;;;7.85;;
58137;SDS011;43955;47.362;18.930;2023-06-10T03:19:44;12.40;;;8.13;;
58137;SDS011;43955;47.362;18.930;2023-06-10T03:22:14;11.88;;;8.13;;
58137;SDS011;43955;47.362;18.930;2023-06-10T03:24:43;12.10;;;7.05;;
58137;SDS011;43955;47.362;18.930;2023-06-10T03:27:13;14.05;;;7.93;;
58137;SDS011;43955;47.362;18.930;2023-06-10T03:29:42;12.80;;;8.70;;
58137;SDS011;43955;47.362;18.930;2023-06-10T03:32:10;11.80;;;7.03;;
58137;SDS011;43955;47.362;18.930;2023-06-10T03:34:37;13.45;;;8.85;;
58137;SDS011;43955;47.362;18.930;2023-06-10T03:37:05;14.00;;;8.20;;
58137;SDS011;43955;47.362;18.930;2023-06-10T03:39:33;11.43;;;7.47;;
58137;SDS011;43955;47.362;18.930;2023-06-10T03:42:01;13.43;;;7.47;;
58137;SDS011;43955;47.362;18.930;2023-06-10T03:44:28;16.35;;;7.75;;
58137;SDS011;43955;47.362;18.930;2023-06-10T03:46:56;13.60;;;7.30;;
58137;SDS011;43955;47.362;18.930;2023-06-10T03:49:25;10.50;;;6.72;;
58137;SDS011;43955;47.362;18.930;2023-06-10T03:51:54;12.48;;;7.10;;
58137;SDS011;43955;47.362;18.930;2023-06-10T03:54:22;16.67;;;7.32;;
58137;SDS011;43955;47.362;18.930;2023-06-10T03:56:49;15.57;;;7.28;;
58137;SDS011;43955;47.362;18.930;2023-06-10T03:59:17;15.75;;;6.80;;
58137;SDS011;43955;47.362;18.930;2023-06-10T04:01:45;20.62;;;6.72;;
58137;SDS011;43955;47.362;18.930;2023-06-10T04:04:15;11.73;;;6.65;;
58137;SDS011;43955;47.362;18.930;2023-06-10T04:06:43;11.05;;;6.65;;
58137;SDS011;43955;47.362;18.930;2023-06-10T04:09:11;10.32;;;6.82;;
58137;SDS011;43955;47.362;18.930;2023-06-10T04:11:39;10.57;;;6.20;;
58137;SDS011;43955;47.362;18.930;2023-06-10T04:14:07;11.57;;;6.30;;
58137;SDS011;43955;47.362;18.930;2023-06-10T04:16:35;12.75;;;6.45;;
58137;SDS011;43955;47.362;18.930;2023-06-10T04:19:02;9.88;;;6.45;;
58137;SDS011;43955;47.362;18.930;2023-06-10T04:21:29;16.75;;;7.78;;
58137;SDS011;43955;47.362;18.930;2023-06-10T04:23:59;12.75;;;6.35;;
58137;SDS011;43955;47.362;18.930;2023-06-10T04:26:27;12.57;;;6.35;;
58137;SDS011;43955;47.362;18.930;2023-06-10T04:28:54;15.15;;;6.00;;
58137;SDS011;43955;47.362;18.930;2023-06-10T04:31:21;17.23;;;6.32;;
58137;SDS011;43955;47.362;18.930;2023-06-10T04:33:49;12.80;;;6.00;;
58137;SDS011;43955;47.362;18.930;2023-06-10T04:36:16;10.18;;;5.70;;
58137;SDS011;43955;47.362;18.930;2023-06-10T04:38:44;15.70;;;6.43;;
58137;SDS011;43955;47.362;18.930;2023-06-10T04:41:12;12.95;;;6.20;;
58137;SDS011;43955;47.362;18.930;2023-06-10T04:43:39;12.82;;;5.28;;
58137;SDS011;43955;47.362;18.930;2023-06-10T04:46:06;10.02;;;5.35;;
58137;SDS011;43955;47.362;18.930;2023-06-10T04:48:35;8.23;;;5.00;;
58137;SDS011;43955;47.362;18.930;2023-06-10T04:51:03;8.45;;;5.32;;
58137;SDS011;43955;47.362;18.930;2023-06-10T04:53:30;9.68;;;5.82;;
58137;SDS011;43955;47.362;18.930;2023-06-10T04:55:57;11.27;;;5.12;;
58137;SDS011;43955;47.362;18.930;2023-06-10T04:58:25;7.97;;;5.00;;
58137;SDS011;43955;47.362;18.930;2023-06-10T05:00:52;14.98;;;5.18;;
58137;SDS011;43955;47.362;18.930;2023-06-10T05:03:19;6.50;;;4.47;;
58137;SDS011;43955;47.362;18.930;2023-06-10T05:05:47;12.18;;;5.00;;
58137;SDS011;43955;47.362;18.930;2023-06-10T05:08:14;12.73;;;6.80;;
58137;SDS011;43955;47.362;18.930;2023-06-10T05:10:41;6.37;;;4.35;;
58137;SDS011;43955;47.362;18.930;2023-06-10T05:13:09;6.82;;;4.30;;
58137;SDS011;43955;47.362;18.930;2023-06-10T05:15:36;6.35;;;3.92;;
58137;SDS011;43955;47.362;18.930;2023-06-10T05:18:04;7.37;;;4.30;;
58137;SDS011;43955;47.362;18.930;2023-06-10T05:20:31;12.80;;;4.18;;
58137;SDS011;43955;47.362;18.930;2023-06-10T05:22:58;6.00;;;3.58;;
58137;SDS011;43955;47.362;18.930;2023-06-10T05:25:26;7.90;;;4.07;;
58137;SDS011;43955;47.362;18.930;2023-06-10T05:27:55;13.70;;;4.93;;
58137;SDS011;43955;47.362;18.930;2023-06-10T05:30:22;5.78;;;3.50;;
58137;SDS011;43955;47.362;18.930;2023-06-10T05:32:51;8.75;;;4.37;;
58137;SDS011;43955;47.362;18.930;2023-06-10T05:35:19;6.55;;;4.47;;
58137;SDS011;43955;47.362;18.930;2023-06-10T05:37:46;13.05;;;4.75;;
58137;SDS011;43955;47.362;18.930;2023-06-10T05:40:15;6.93;;;4.15;;
58137;SDS011;43955;47.362;18.930;2023-06-10T05:42:42;6.70;;;4.30;;
58137;SDS011;43955;47.362;18.930;2023-06-10T05:45:09;6.68;;;4.10;;
58137;SDS011;43955;47.362;18.930;2023-06-10T05:47:37;5.93;;;4.05;;
58137;SDS011;43955;47.362;18.930;2023-06-10T05:50:04;6.25;;;3.92;;
58137;SDS011;43955;47.362;18.930;2023-06-10T05:52:36;6.50;;;3.78;;
58137;SDS011;43955;47.362;18.930;2023-06-10T05:55:03;8.38;;;4.43;;
58137;SDS011;43955;47.362;18.930;2023-06-10T05:57:31;6.35;;;4.00;;
58137;SDS011;43955;47.362;18.930;2023-06-10T05:59:59;6.03;;;3.40;;
58137;SDS011;43955;47.362;18.930;2023-06-10T06:02:26;4.75;;;3.05;;
58137;SDS011;43955;47.362;18.930;2023-06-10T06:04:54;5.90;;;3.30;;
58137;SDS011;43955;47.362;18.930;2023-06-10T06:07:21;5.65;;;3.72;;
58137;SDS011;43955;47.362;18.930;2023-06-10T06:09:48;9.02;;;4.05;;
58137;SDS011;43955;47.362;18.930;2023-06-10T06:12:16;6.50;;;3.85;;
58137;SDS011;43955;47.362;18.930;2023-06-10T06:14:43;7.90;;;4.40;;
58137;SDS011;43955;47.362;18.930;2023-06-10T06:17:11;6.85;;;3.92;;
58137;SDS011;43955;47.362;18.930;2023-06-10T06:19:39;7.25;;;4.37;;
58137;SDS011;43955;47.362;18.930;2023-06-10T06:22:06;7.03;;;3.78;;
58137;SDS011;43955;47.362;18.930;2023-06-10T06:24:34;5.25;;;3.47;;
58137;SDS011;43955;47.362;18.930;2023-06-10T06:27:01;8.25;;;3.33;;
58137;SDS011;43955;47.362;18.930;2023-06-10T06:29:28;4.90;;;3.45;;
58137;SDS011;43955;47.362;18.930;2023-06-10T06:31:57;24.87;;;5.90;;
58137;SDS011;43955;47.362;18.930;2023-06-10T06:34:25;13.60;;;4.37;;
58137;SDS011;43955;47.362;18.930;2023-06-10T06:36:52;6.97;;;3.53;;
58137;SDS011;43955;47.362;18.930;2023-06-10T06:39:20;10.13;;;3.20;;
58137;SDS011;43955;47.362;18.930;2023-06-10T06:41:47;4.87;;;3.28;;
58137;SDS011;43955;47.362;18.930;2023-06-10T06:44:14;4.25;;;2.80;;
58137;SDS011;43955;47.362;18.930;2023-06-10T06:46:42;18.77;;;4.57;;
58137;SDS011;43955;47.362;18.930;2023-06-10T06:49:09;6.05;;;3.03;;
58137;SDS011;43955;47.362;18.930;2023-06-10T06:51:36;5.85;;;3.25;;
58137;SDS011;43955;47.362;18.930;2023-06-10T06:54:04;7.30;;;3.42;;
58137;SDS011;43955;47.362;18.930;2023-06-10T06:56:32;6.07;;;3.22;;
58137;SDS011;43955;47.362;18.930;2023-06-10T06:58:59;5.97;;;3.75;;
58137;SDS011;43955;47.362;18.930;2023-06-10T07:01:27;4.70;;;3.55;;
58137;SDS011;43955;47.362;18.930;2023-06-10T07:03:54;4.43;;;3.40;;
58137;SDS011;43955;47.362;18.930;2023-06-10T07:06:21;4.30;;;3.33;;
58137;SDS011;43955;47.362;18.930;2023-06-10T07:08:49;6.62;;;3.08;;
58137;SDS011;43955;47.362;18.930;2023-06-10T07:11:17;5.55;;;3.72;;
58137;SDS011;43955;47.362;18.930;2023-06-10T07:13:44;8.95;;;3.75;;
58137;SDS011;43955;47.362;18.930;2023-06-10T07:16:11;9.65;;;3.70;;
58137;SDS011;43955;47.362;18.930;2023-06-10T07:18:39;8.30;;;3.53;;
58137;SDS011;43955;47.362;18.930;2023-06-10T07:21:06;6.22;;;3.42;;
58137;SDS011;43955;47.362;18.930;2023-06-10T07:23:33;6.35;;;3.72;;
58137;SDS011;43955;47.362;18.930;2023-06-10T07:26:01;10.38;;;3.80;;
58137;SDS011;43955;47.362;18.930;2023-06-10T07:28:28;5.55;;;3.80;;
58137;SDS011;43955;47.362;18.930;2023-06-10T07:30:55;6.85;;;3.40;;
58137;SDS011;43955;47.362;18.930;2023-06-10T07:33:23;4.65;;;3.17;;
58137;SDS011;43955;47.362;18.930;2023-06-10T07:35:50;5.93;;;3.35;;
58137;SDS011;43955;47.362;18.930;2023-06-10T07:38:17;6.00;;;3.75;;
58137;SDS011;43955;47.362;18.930;2023-06-10T07:40:45;5.57;;;3.50;;
58137;SDS011;43955;47.362;18.930;2023-06-10T07:43:12;5.30;;;3.70;;
58137;SDS011;43955;47.362;18.930;2023-06-10T07:45:39;7.82;;;3.45;;
58137;SDS011;43955;47.362;18.930;2023-06-10T07:48:07;8.52;;;4.05;;
58137;SDS011;43955;47.362;18.930;2023-06-10T07:50:35;5.40;;;3.80;;
58137;SDS011;43955;47.362;18.930;2023-06-10T07:53:02;8.20;;;3.80;;
58137;SDS011;43955;47.362;18.930;2023-06-10T07:55:30;8.52;;;4.72;;
58137;SDS011;43955;47.362;18.930;2023-06-10T07:57:57;6.12;;;3.60;;
58137;SDS011;43955;47.362;18.930;2023-06-10T08:00:24;11.40;;;4.55;;
58137;SDS011;43955;47.362;18.930;2023-06-10T08:02:52;5.75;;;4.70;;
58137;SDS011;43955;47.362;18.930;2023-06-10T08:05:19;7.20;;;4.40;;
58137;SDS011;43955;47.362;18.930;2023-06-10T08:07:47;61.47;;;8.48;;
58137;SDS011;43955;47.362;18.930;2023-06-10T08:10:15;7.43;;;4.50;;
58137;SDS011;43955;47.362;18.930;2023-06-10T08:12:42;22.13;;;5.20;;
58137;SDS011;43955;47.362;18.930;2023-06-10T08:15:09;7.37;;;4.37;;
58137;SDS011;43955;47.362;18.930;2023-06-10T08:17:38;9.93;;;4.57;;
58137;SDS011;43955;47.362;18.930;2023-06-10T08:20:06;9.55;;;4.78;;
58137;SDS011;43955;47.362;18.930;2023-06-10T08:22:33;6.03;;;4.32;;
58137;SDS011;43955;47.362;18.930;2023-06-10T08:25:01;12.05;;;5.20;;
58137;SDS011;43955;47.362;18.930;2023-06-10T08:27:29;7.87;;;4.37;;
58137;SDS011;43955;47.362;18.930;2023-06-10T08:29:56;5.62;;;4.12;;
58137;SDS011;43955;47.362;18.930;2023-06-10T08:32:23;6.85;;;4.00;;
58137;SDS011;43955;47.362;18.930;2023-06-10T08:34:51;6.28;;;4.12;;
58137;SDS011;43955;47.362;18.930;2023-06-10T08:37:18;8.38;;;4.22;;
58137;SDS011;43955;47.362;18.930;2023-06-10T08:39:45;5.82;;;4.28;;
58137;SDS011;43955;47.362;18.930;2023-06-10T08:42:22;8.57;;;4.18;;
58137;SDS011;43955;47.362;18.930;2023-06-10T08:44:53;7.55;;;3.72;;
58137;SDS011;43955;47.362;18.930;2023-06-10T08:47:22;4.40;;;3.53;;
58137;SDS011;43955;47.362;18.930;2023-06-10T08:49:50;4.87;;;3.78;;
58137;SDS011;43955;47.362;18.930;2023-06-10T08:52:20;5.05;;;3.65;;
58137;SDS011;43955;47.362;18.930;2023-06-10T08:55:31;8.52;;;4.03;;
58137;SDS011;43955;47.362;18.930;2023-06-10T08:57:40;8.57;;;4.40;;
58137;SDS011;43955;47.362;18.930;2023-06-10T09:00:08;7.80;;;5.12;;
58137;SDS011;43955;47.362;18.930;2023-06-10T09:02:36;20.30;;;5.53;;
58137;SDS011;43955;47.362;18.930;2023-06-10T09:05:04;7.28;;;5.30;;
58137;SDS011;43955;47.362;18.930;2023-06-10T09:07:32;8.95;;;5.00;;
58137;SDS011;43955;47.362;18.930;2023-06-10T09:10:01;8.45;;;5.45;;
58137;SDS011;43955;47.362;18.930;2023-06-10T09:15:02;8.25;;;5.70;;
58137;SDS011;43955;47.362;18.930;2023-06-10T09:17:30;7.97;;;5.87;;
58137;SDS011;43955;47.362;18.930;2023-06-10T09:19:59;7.78;;;5.10;;
58137;SDS011;43955;47.362;18.930;2023-06-10T09:22:27;7.35;;;5.75;;
58137;SDS011;43955;47.362;18.930;2023-06-10T09:25:13;11.80;;;6.70;;
58137;SDS011;43955;47.362;18.930;2023-06-10T09:27:48;19.33;;;7.00;;
58137;SDS011;43955;47.362;18.930;2023-06-10T09:30:27;8.35;;;6.18;;
58137;SDS011;43955;47.362;18.930;2023-06-10T09:33:02;7.78;;;6.30;;
58137;SDS011;43955;47.362;18.930;2023-06-10T09:35:37;9.20;;;5.72;;
58137;SDS011;43955;47.362;18.930;2023-06-10T09:38:13;13.90;;;6.15;;
58137;SDS011;43955;47.362;18.930;2023-06-10T09:40:48;7.55;;;5.03;;
58137;SDS011;43955;47.362;18.930;2023-06-10T09:43:21;7.93;;;5.90;;
58137;SDS011;43955;47.362;18.930;2023-06-10T09:45:49;8.40;;;5.20;;
58137;SDS011;43955;47.362;18.930;2023-06-10T09:48:20;8.68;;;6.00;;
58137;SDS011;43955;47.362;18.930;2023-06-10T09:50:48;9.00;;;5.90;;
58137;SDS011;43955;47.362;18.930;2023-06-10T09:53:16;8.02;;;5.32;;
58137;SDS011;43955;47.362;18.930;2023-06-10T09:55:44;21.00;;;6.37;;
58137;SDS011;43955;47.362;18.930;2023-06-10T09:58:12;10.60;;;6.05;;
58137;SDS011;43955;47.362;18.930;2023-06-10T10:00:39;8.07;;;5.22;;
58137;SDS011;43955;47.362;18.930;2023-06-10T10:03:06;8.63;;;5.80;;
58137;SDS011;43955;47.362;18.930;2023-06-10T10:05:34;8.38;;;5.18;;
58137;SDS011;43955;47.362;18.930;2023-06-10T10:08:01;7.85;;;5.35;;
58137;SDS011;43955;47.362;18.930;2023-06-10T10:10:29;9.52;;;6.22;;
58137;SDS011;43955;47.362;18.930;2023-06-10T10:12:56;10.60;;;6.72;;
58137;SDS011;43955;47.362;18.930;2023-06-10T10:15:24;9.70;;;7.15;;
58137;SDS011;43955;47.362;18.930;2023-06-10T10:18:02;10.98;;;7.75;;
58137;SDS011;43955;47.362;18.930;2023-06-10T10:20:36;9.88;;;5.90;;
58137;SDS011;43955;47.362;18.930;2023-06-10T10:23:10;9.63;;;6.75;;
58137;SDS011;43955;47.362;18.930;2023-06-10T10:25:39;8.77;;;6.35;;
58137;SDS011;43955;47.362;18.930;2023-06-10T10:28:12;18.95;;;6.90;;
58137;SDS011;43955;47.362;18.930;2023-06-10T10:30:45;9.20;;;6.53;;
58137;SDS011;43955;47.362;18.930;2023-06-10T10:33:27;8.13;;;5.78;;
58137;SDS011;43955;47.362;18.930;2023-06-10T10:36:00;13.80;;;6.40;;
58137;SDS011;43955;47.362;18.930;2023-06-10T10:38:28;8.43;;;5.75;;
58137;SDS011;43955;47.362;18.930;2023-06-10T10:40:55;9.07;;;5.87;;
58137;SDS011;43955;47.362;18.930;2023-06-10T10:43:26;5.55;;;3.75;;
58137;SDS011;43955;47.362;18.930;2023-06-10T10:45:58;14.15;;;6.90;;
58137;SDS011;43955;47.362;18.930;2023-06-10T10:48:35;6.53;;;3.53;;
58137;SDS011;43955;47.362;18.930;2023-06-10T10:51:04;13.15;;;4.20;;
58137;SDS011;43955;47.362;18.930;2023-06-10T10:53:31;5.60;;;3.45;;
58137;SDS011;43955;47.362;18.930;2023-06-10T10:55:59;4.55;;;3.60;;
58137;SDS011;43955;47.362;18.930;2023-06-10T10:58:27;6.20;;;3.67;;
58137;SDS011;43955;47.362;18.930;2023-06-10T11:00:54;7.32;;;3.47;;
58137;SDS011;43955;47.362;18.930;2023-06-10T11:03:21;4.25;;;3.30;;
58137;SDS011;43955;47.362;18.930;2023-06-10T11:05:49;9.15;;;3.95;;
58137;SDS011;43955;47.362;18.930;2023-06-10T11:11:00;5.00;;;3.65;;
58137;SDS011;43955;47.362;18.930;2023-06-10T11:13:27;14.87;;;4.07;;
58137;SDS011;43955;47.362;18.930;2023-06-10T11:15:57;5.18;;;3.58;;
58137;SDS011;43955;47.362;18.930;2023-06-10T11:18:26;7.60;;;5.37;;
58137;SDS011;43955;47.362;18.930;2023-06-10T11:20:55;13.62;;;5.85;;
58137;SDS011;43955;47.362;18.930;2023-06-10T11:26:09;11.02;;;8.18;;
58137;SDS011;43955;47.362;18.930;2023-06-10T11:29:08;12.30;;;8.18;;
58137;SDS011;43955;47.362;18.930;2023-06-10T11:31:40;11.15;;;6.87;;
58137;SDS011;43955;47.362;18.930;2023-06-10T11:34:09;15.48;;;7.65;;
58137;SDS011;43955;47.362;18.930;2023-06-10T11:36:37;9.07;;;7.07;;
58137;SDS011;43955;47.362;18.930;2023-06-10T11:39:07;12.65;;;7.45;;
58137;SDS011;43955;47.362;18.930;2023-06-10T11:41:36;16.25;;;8.82;;
58137;SDS011;43955;47.362;18.930;2023-06-10T11:44:13;14.15;;;8.77;;
58137;SDS011;43955;47.362;18.930;2023-06-10T11:46:47;15.95;;;9.65;;
58137;SDS011;43955;47.362;18.930;2023-06-10T11:49:15;12.37;;;8.23;;
58137;SDS011;43955;47.362;18.930;2023-06-10T11:51:42;11.00;;;7.70;;
58137;SDS011;43955;47.362;18.930;2023-06-10T11:54:17;12.95;;;8.15;;
58137;SDS011;43955;47.362;18.930;2023-06-10T11:56:45;11.35;;;7.85;;
58137;SDS011;43955;47.362;18.930;2023-06-10T11:59:13;13.13;;;8.77;;
58137;SDS011;43955;47.362;18.930;2023-06-10T12:01:44;13.02;;;8.82;;
58137;SDS011;43955;47.362;18.930;2023-06-10T12:04:12;14.30;;;8.77;;
58137;SDS011;43955;47.362;18.930;2023-06-10T12:06:41;12.55;;;8.23;;
58137;SDS011;43955;47.362;18.930;2023-06-10T12:09:14;8.20;;;6.57;;
58137;SDS011;43955;47.362;18.930;2023-06-10T12:11:54;6.70;;;5.20;;
58137;SDS011;43955;47.362;18.930;2023-06-10T12:17:42;9.95;;;6.35;;
58137;SDS011;43955;47.362;18.930;2023-06-10T12:20:24;7.70;;;6.00;;
58137;SDS011;43955;47.362;18.930;2023-06-10T12:22:55;8.43;;;6.72;;
58137;SDS011;43955;47.362;18.930;2023-06-10T12:25:26;7.80;;;6.55;;
58137;SDS011;43955;47.362;18.930;2023-06-10T12:27:55;8.63;;;6.95;;
58137;SDS011;43955;47.362;18.930;2023-06-10T12:30:25;23.65;;;9.10;;
58137;SDS011;43955;47.362;18.930;2023-06-10T12:32:53;25.35;;;9.50;;
58137;SDS011;43955;47.362;18.930;2023-06-10T12:35:21;14.15;;;9.82;;
58137;SDS011;43955;47.362;18.930;2023-06-10T12:37:56;12.37;;;9.57;;
58137;SDS011;43955;47.362;18.930;2023-06-10T12:40:38;12.68;;;8.40;;
58137;SDS011;43955;47.362;18.930;2023-06-10T12:43:10;10.68;;;8.93;;
58137;SDS011;43955;47.362;18.930;2023-06-10T12:45:39;11.50;;;8.23;;
58137;SDS011;43955;47.362;18.930;2023-06-10T12:48:11;12.85;;;10.32;;
58137;SDS011;43955;47.362;18.930;2023-06-10T12:50:40;39.60;;;13.27;;
58137;SDS011;43955;47.362;18.930;2023-06-10T12:53:09;16.45;;;10.45;;
58137;SDS011;43955;47.362;18.930;2023-06-10T12:55:38;13.05;;;10.63;;
58137;SDS011;43955;47.362;18.930;2023-06-10T12:58:05;13.60;;;9.57;;
58137;SDS011;43955;47.362;18.930;2023-06-10T13:00:32;12.43;;;10.10;;
58137;SDS011;43955;47.362;18.930;2023-06-10T13:03:02;13.88;;;10.05;;
58137;SDS011;43955;47.362;18.930;2023-06-10T13:05:32;22.27;;;11.32;;
58137;SDS011;43955;47.362;18.930;2023-06-10T13:07:59;14.40;;;10.20;;
58137;SDS011;43955;47.362;18.930;2023-06-10T13:10:27;12.23;;;8.50;;
58137;SDS011;43955;47.362;18.930;2023-06-10T13:12:54;11.10;;;8.30;;
58137;SDS011;43955;47.362;18.930;2023-06-10T13:15:22;22.75;;;8.10;;
58137;SDS011;43955;47.362;18.930;2023-06-10T13:17:49;9.98;;;7.80;;
58137;SDS011;43955;47.362;18.930;2023-06-10T13:20:18;11.82;;;8.10;;
58137;SDS011;43955;47.362;18.930;2023-06-10T13:22:46;10.98;;;8.23;;
58137;SDS011;43955;47.362;18.930;2023-06-10T13:25:14;9.77;;;7.70;;
58137;SDS011;43955;47.362;18.930;2023-06-10T13:27:42;25.20;;;8.75;;
58137;SDS011;43955;47.362;18.930;2023-06-10T13:30:10;7.32;;;6.00;;
58137;SDS011;43955;47.362;18.930;2023-06-10T13:32:38;8.50;;;5.00;;
58137;SDS011;43955;47.362;18.930;2023-06-10T13:35:06;8.88;;;4.62;;
58137;SDS011;43955;47.362;18.930;2023-06-10T13:37:35;7.82;;;4.80;;
58137;SDS011;43955;47.362;18.930;2023-06-10T13:40:03;6.53;;;4.37;;
58137;SDS011;43955;47.362;18.930;2023-06-10T13:42:31;6.37;;;4.30;;
58137;SDS011;43955;47.362;18.930;2023-06-10T13:44:58;7.15;;;4.53;;
58137;SDS011;43955;47.362;18.930;2023-06-10T13:47:26;6.25;;;4.12;;
58137;SDS011;43955;47.362;18.930;2023-06-10T13:49:53;6.50;;;4.45;;
58137;SDS011;43955;47.362;18.930;2023-06-10T13:52:20;5.90;;;3.90;;
58137;SDS011;43955;47.362;18.930;2023-06-10T13:54:48;6.68;;;4.97;;
58137;SDS011;43955;47.362;18.930;2023-06-10T13:57:15;7.07;;;5.60;;
58137;SDS011;43955;47.362;18.930;2023-06-10T13:59:42;8.07;;;5.05;;
58137;SDS011;43955;47.362;18.930;2023-06-10T14:02:10;6.85;;;5.40;;
58137;SDS011;43955;47.362;18.930;2023-06-10T14:04:38;6.25;;;5.05;;
58137;SDS011;43955;47.362;18.930;2023-06-10T14:07:05;6.72;;;4.87;;
58137;SDS011;43955;47.362;18.930;2023-06-10T14:09:32;7.60;;;5.15;;
58137;SDS011;43955;47.362;18.930;2023-06-10T14:12:00;7.00;;;5.12;;
58137;SDS011;43955;47.362;18.930;2023-06-10T14:14:27;9.63;;;5.10;;
58137;SDS011;43955;47.362;18.930;2023-06-10T14:16:54;7.65;;;5.05;;
58137;SDS011;43955;47.362;18.930;2023-06-10T14:19:22;16.40;;;5.45;;
58137;SDS011;43955;47.362;18.930;2023-06-10T14:21:49;9.57;;;5.18;;
58137;SDS011;43955;47.362;18.930;2023-06-10T14:24:16;8.77;;;5.53;;
58137;SDS011;43955;47.362;18.930;2023-06-10T14:26:44;6.50;;;5.18;;
58137;SDS011;43955;47.362;18.930;2023-06-10T14:29:11;7.65;;;5.32;;
58137;SDS011;43955;47.362;18.930;2023-06-10T14:31:40;7.07;;;4.62;;
58137;SDS011;43955;47.362;18.930;2023-06-10T14:34:08;8.43;;;4.93;;
58137;SDS011;43955;47.362;18.930;2023-06-10T14:36:36;6.25;;;4.50;;
58137;SDS011;43955;47.362;18.930;2023-06-10T14:39:04;7.90;;;4.85;;
58137;SDS011;43955;47.362;18.930;2023-06-10T14:41:31;6.32;;;5.15;;
58137;SDS011;43955;47.362;18.930;2023-06-10T14:43:58;8.95;;;5.07;;
58137;SDS011;43955;47.362;18.930;2023-06-10T14:46:26;7.05;;;5.30;;
58137;SDS011;43955;47.362;18.930;2023-06-10T14:48:53;7.72;;;4.75;;
58137;SDS011;43955;47.362;18.930;2023-06-10T14:51:20;7.97;;;5.47;;
58137;SDS011;43955;47.362;18.930;2023-06-10T14:53:48;8.90;;;6.03;;